Time;durP1;ratioP1;P1;durP2;ratioP2;P2;SDS_P1;SDS_P2;PMS_P1;PMS_P2;Temp;Humidity;BMP_temperature;BMP_pressure;BME280_temperature;BME280_humidity;BME280_pressure;Samples;Min_cycle;Max_cycle;Signal;HPM_P1;HPM_P2
2023/02/20 00:01:55;;;;;;;8.35;2.70;;;;;;;7.91;56.09;101819.09;5086176;27;97161;-70
2023/02/20 00:04:21;;;;;;;6.82;2.38;;;;;;;7.84;56.41;101813.00;5081211;27;96968;-70
2023/02/20 00:06:49;;;;;;;11.13;2.75;;;;;;;7.69;56.89;101826.25;5080294;27;99756;-71
2023/02/20 00:09:16;;;;;;;9.48;3.22;;;;;;;7.82;56.72;101816.50;5084999;27;97583;-70
2023/02/20 00:11:42;;;;;;;6.50;2.95;;;;;;;7.78;56.90;101812.16;5081568;27;96913;-72
2023/02/20 00:14:09;;;;;;;11.35;2.92;;;;;;;7.96;56.29;101809.38;5076177;27;96754;-71
2023/02/20 00:16:35;;;;;;;8.95;3.17;;;;;;;7.78;56.82;101814.78;5085254;27;99009;-71
2023/02/20 00:19:01;;;;;;;9.98;2.90;;;;;;;7.90;56.64;101810.31;5075187;27;98912;-71
2023/02/20 00:21:28;;;;;;;5.18;2.90;;;;;;;7.96;56.47;101809.38;5085162;27;96809;-73
2023/02/20 00:23:56;;;;;;;9.77;3.25;;;;;;;7.93;56.33;101812.06;5082159;27;96894;-71
2023/02/20 00:26:22;;;;;;;9.57;3.13;;;;;;;7.78;56.90;101799.88;5075083;27;99442;-72
2023/02/20 00:28:48;;;;;;;6.53;3.50;;;;;;;7.84;56.79;101801.59;5083246;27;99536;-70
2023/02/20 00:31:17;;;;;;;7.13;3.47;;;;;;;7.78;57.15;101791.13;5089864;27;98054;-71
2023/02/20 00:33:43;;;;;;;9.65;3.53;;;;;;;7.84;56.96;101789.31;5082625;27;97043;-71
2023/02/20 00:36:15;;;;;;;9.35;3.60;;;;;;;8.00;56.49;101790.06;5080159;27;99360;-71
2023/02/20 00:38:42;;;;;;;6.32;3.22;;;;;;;7.95;56.75;101786.56;5082234;27;98785;-72
2023/02/20 00:41:12;;;;;;;10.65;3.63;;;;;;;7.88;56.81;101783.13;5083543;27;96908;-71
2023/02/20 00:43:39;;;;;;;12.85;5.32;;;;;;;7.98;56.73;101782.19;5084038;27;96760;-72
2023/02/20 00:46:06;;;;;;;7.95;3.95;;;;;;;7.88;57.10;101784.88;5078551;27;99011;-71
2023/02/20 00:48:32;;;;;;;10.15;4.25;;;;;;;7.75;57.11;101773.56;5084354;27;98865;-70
2023/02/20 00:50:58;;;;;;;10.75;4.10;;;;;;;7.70;57.66;101774.50;5085601;27;99331;-71
2023/02/20 00:53:25;;;;;;;9.88;3.70;;;;;;;7.82;57.38;101772.66;5083668;27;96871;-71
2023/02/20 00:55:51;;;;;;;7.32;3.25;;;;;;;7.70;57.69;101780.63;5080220;27;98958;-71
2023/02/20 00:58:19;;;;;;;8.98;4.18;;;;;;;7.78;57.60;101765.69;5083809;27;98722;-71
2023/02/20 01:00:45;;;;;;;10.55;3.80;;;;;;;7.86;57.37;101766.50;5085364;27;98422;-72
2023/02/20 01:03:11;;;;;;;7.47;3.75;;;;;;;7.73;57.71;101751.69;5085835;27;97124;-72
2023/02/20 01:05:38;;;;;;;8.23;3.58;;;;;;;8.07;57.04;101757.53;5079852;27;99071;-71
2023/02/20 01:08:05;;;;;;;6.45;3.53;;;;;;;8.04;57.03;101760.19;5081243;27;98839;-71
2023/02/20 01:10:31;;;;;;;8.02;4.50;;;;;;;8.05;56.98;101751.41;5085634;27;98656;-72
2023/02/20 01:12:57;;;;;;;7.82;3.60;;;;;;;8.24;56.82;101757.38;5089249;27;96805;-72
2023/02/20 01:15:25;;;;;;;9.30;3.90;;;;;;;8.25;56.45;101760.00;5085029;27;100159;-72
2023/02/20 01:17:52;;;;;;;6.40;3.88;;;;;;;8.23;56.83;101751.22;5080858;27;98785;-71
2023/02/20 01:20:18;;;;;;;8.57;4.32;;;;;;;8.14;56.85;101753.94;5084613;27;97869;-71
2023/02/20 01:22:44;;;;;;;6.18;3.72;;;;;;;8.14;56.80;101742.56;5083307;27;96878;-72
2023/02/20 01:25:11;;;;;;;8.20;4.15;;;;;;;8.27;56.76;101726.59;5076109;27;99403;-71
2023/02/20 01:27:37;;;;;;;8.40;3.88;;;;;;;8.30;56.42;101734.50;5073355;27;98147;-70
2023/02/20 01:30:04;;;;;;;8.63;3.85;;;;;;;8.34;56.25;101728.31;5075831;27;96778;-71
2023/02/20 01:32:32;;;;;;;7.45;3.83;;;;;;;8.12;56.70;101731.16;5080761;27;97135;-71
2023/02/20 01:34:58;;;;;;;10.13;3.80;;;;;;;8.21;56.85;101720.53;5077165;27;99294;-71
2023/02/20 01:37:25;;;;;;;9.38;4.30;;;;;;;8.41;56.22;101713.31;5084232;27;97652;-71
2023/02/20 01:39:51;;;;;;;6.95;3.95;;;;;;;8.36;56.04;101699.34;5082302;27;96981;-71
2023/02/20 01:42:21;;;;;;;6.57;3.80;;;;;;;8.21;56.68;101700.34;5083783;27;97689;-71
2023/02/20 01:44:47;;;;;;;13.15;4.30;;;;;;;8.28;56.67;101696.75;5077126;27;101817;-70
2023/02/20 01:47:16;;;;;;;7.60;4.32;;;;;;;8.18;57.25;101695.13;5080554;27;99108;-71
2023/02/20 01:49:47;;;;;;;6.35;3.75;;;;;;;8.05;57.66;101690.88;5078000;27;97554;-71
2023/02/20 01:52:18;;;;;;;11.18;4.53;;;;;;;8.21;57.41;101679.28;5075444;27;97409;-69
2023/02/20 01:54:49;;;;;;;13.00;4.32;;;;;;;8.09;57.54;101684.66;5084639;27;98921;-71
2023/02/20 01:57:21;;;;;;;10.57;4.45;;;;;;;8.20;57.60;101677.56;5080307;27;100871;-70
2023/02/20 01:59:49;;;;;;;8.90;3.92;;;;;;;8.08;57.87;101661.88;5082685;27;97488;-71
2023/02/20 02:02:16;;;;;;;9.05;4.68;;;;;;;8.24;57.43;101646.78;5081012;27;98423;-71
2023/02/20 02:04:45;;;;;;;11.35;4.70;;;;;;;8.17;57.75;101645.09;5074646;27;99107;-71
2023/02/20 02:07:12;;;;;;;8.57;3.83;;;;;;;8.28;57.69;101643.22;5080659;27;99300;-71
2023/02/20 02:09:44;;;;;;;8.55;3.88;;;;;;;8.02;58.32;101630.34;5079441;27;97615;-69
2023/02/20 02:12:10;;;;;;;10.60;4.38;;;;;;;8.15;57.93;101637.22;5077801;27;97032;-71
2023/02/20 02:14:37;;;;;;;8.65;4.28;;;;;;;8.18;57.89;101636.31;5074801;27;99762;-71
2023/02/20 02:17:30;;;;;;;9.38;4.05;;;;;;;8.23;57.63;101635.38;5081393;27;99211;-71
2023/02/20 02:20:27;;;;;;;9.02;4.05;;;;;;;8.15;57.82;101626.69;5082509;27;97648;-70
2023/02/20 02:23:19;;;;;;;8.65;3.85;;;;;;;8.30;58.07;101637.09;5078459;27;97733;-69
2023/02/20 02:25:55;;;;;;;6.70;3.67;;;;;;;7.96;58.88;101640.94;5077667;27;100817;-71
2023/02/20 02:28:56;;;;;;;6.80;3.83;;;;;;;8.22;58.26;101635.38;5075702;27;98794;-70
2023/02/20 02:31:51;;;;;;;10.02;4.28;;;;;;;8.45;57.74;101633.41;5056372;27;96922;-70
2023/02/20 02:34:51;;;;;;;6.80;4.40;;;;;;;8.30;58.07;101630.91;5086065;27;97436;-70
2023/02/20 02:37:26;;;;;;;9.05;4.22;;;;;;;8.28;58.15;101630.03;5072320;27;98819;-68
2023/02/20 02:40:01;;;;;;;8.68;4.45;;;;;;;8.47;57.90;101617.59;5085661;27;99255;-70
2023/02/20 02:42:41;;;;;;;6.45;4.35;;;;;;;8.51;57.71;101606.97;5078946;27;96955;-70
2023/02/20 02:45:14;;;;;;;9.98;4.43;;;;;;;8.38;58.13;101598.38;5079581;27;97345;-69
2023/02/20 02:47:48;;;;;;;7.15;3.88;;;;;;;8.40;58.16;101606.25;5083714;27;99152;-69
2023/02/20 02:50:18;;;;;;;9.45;5.07;;;;;;;8.33;58.47;101584.41;5084863;27;98775;-69
2023/02/20 02:52:48;;;;;;;6.82;4.30;;;;;;;8.36;58.65;101594.00;5078612;27;97100;-70
2023/02/20 02:55:17;;;;;;;9.43;4.63;;;;;;;8.37;58.78;101587.84;5081601;27;96788;-72
2023/02/20 02:57:44;;;;;;;8.93;4.65;;;;;;;8.36;59.04;101594.88;5079302;27;99590;-70
2023/02/20 03:00:15;;;;;;;7.82;4.57;;;;;;;8.54;58.33;101588.47;5077060;27;99217;-70
2023/02/20 03:02:47;;;;;;;8.50;4.72;;;;;;;8.58;58.43;101595.47;5079578;27;98317;-70
2023/02/20 03:05:19;;;;;;;9.27;5.32;;;;;;;8.72;58.43;101587.38;5075039;27;97247;-71
2023/02/20 03:07:49;;;;;;;8.75;4.63;;;;;;;8.58;58.59;101582.28;5083918;27;98795;-70
2023/02/20 03:10:20;;;;;;;8.77;4.85;;;;;;;8.64;58.76;101584.84;5073809;27;98807;-70
2023/02/20 03:12:50;;;;;;;11.05;4.82;;;;;;;8.54;58.96;101566.53;5072674;27;97279;-72
2023/02/20 03:15:31;;;;;;;9.70;4.97;;;;;;;8.55;59.17;101565.63;5080445;27;96846;-72
2023/02/20 03:18:09;;;;;;;7.90;5.00;;;;;;;8.74;58.48;101564.47;5083854;27;99285;-71
2023/02/20 03:20:36;;;;;;;8.90;5.40;;;;;;;8.60;59.24;101555.94;5081599;27;99186;-72
2023/02/20 03:23:05;;;;;;;9.23;5.50;;;;;;;8.39;60.23;101550.06;5086855;27;96971;-71
2023/02/20 03:25:36;;;;;;;9.85;5.47;;;;;;;8.68;59.50;101552.28;5083979;27;97900;-72
2023/02/20 03:28:08;;;;;;;12.65;5.47;;;;;;;8.75;59.24;101546.03;5081236;27;99256;-73
2023/02/20 03:30:40;;;;;;;9.02;5.22;;;;;;;8.72;59.36;101530.28;5084707;27;98814;-72
2023/02/20 03:44:25;;;;;;;10.68;6.20;;;;;;;9.03;58.99;101533.28;5082429;27;97154;-71
2023/02/20 03:46:54;;;;;;;8.02;5.40;;;;;;;9.06;58.91;101521.78;5090875;27;96826;-70
2023/02/20 03:49:24;;;;;;;8.68;5.05;;;;;;;9.12;58.63;101509.38;5079504;27;99257;-72
2023/02/20 03:51:59;;;;;;;11.90;5.78;;;;;;;9.34;58.09;101530.97;5077312;27;100495;-70
2023/02/20 03:54:28;;;;;;;10.70;5.33;;;;;;;9.30;58.38;101525.78;5080952;27;98145;-71
2023/02/20 03:56:59;;;;;;;13.63;6.68;;;;;;;9.23;58.62;101524.16;5083290;27;97161;-71
2023/02/20 03:59:32;;;;;;;9.32;4.75;;;;;;;9.08;59.38;101527.91;5080441;27;97965;-71
2023/02/20 04:02:03;;;;;;;9.80;5.85;;;;;;;9.21;58.81;101532.09;5083129;27;99309;-72
2023/02/20 04:04:34;;;;;;;10.80;6.18;;;;;;;8.82;60.44;101530.97;5089719;27;97041;-71
2023/02/20 04:07:03;;;;;;;10.13;5.75;;;;;;;9.00;59.73;101532.44;5078297;27;96803;-71
2023/02/20 04:09:34;;;;;;;8.77;5.35;;;;;;;8.84;60.59;101533.59;5070495;27;97718;-71
2023/02/20 04:12:08;;;;;;;9.15;5.35;;;;;;;9.08;59.87;101520.00;5081843;27;98991;-70
2023/02/20 04:14:35;;;;;;;12.02;6.07;;;;;;;9.28;59.53;101509.97;5076181;27;96707;-71
2023/02/20 04:17:07;;;;;;;11.18;5.50;;;;;;;9.16;59.79;101510.22;5085082;27;97734;-71
2023/02/20 04:19:34;;;;;;;9.18;5.10;;;;;;;9.05;60.24;101523.59;5084688;27;99037;-71
2023/02/20 04:22:03;;;;;;;10.30;5.82;;;;;;;8.93;60.68;101517.63;5076885;27;98818;-71
2023/02/20 04:24:36;;;;;;;8.18;5.63;;;;;;;8.93;61.28;101505.31;5080621;27;96868;-72
2023/02/20 04:27:03;;;;;;;9.75;5.75;;;;;;;9.13;60.47;101503.22;5083831;27;97124;-71
2023/02/20 04:29:29;;;;;;;10.63;6.10;;;;;;;9.24;60.17;101500.41;5080037;27;99268;-71
2023/02/20 04:31:56;;;;;;;10.68;6.07;;;;;;;9.15;60.65;101490.88;5082674;27;98190;-71
2023/02/20 04:34:22;;;;;;;10.38;6.13;;;;;;;8.95;61.35;101487.72;5077617;27;96775;-70
2023/02/20 04:36:49;;;;;;;8.68;5.47;;;;;;;9.14;60.96;101475.94;5080618;27;96886;-70
2023/02/20 04:39:15;;;;;;;10.32;5.85;;;;;;;9.01;61.22;101474.44;5080392;27;99092;-71
2023/02/20 04:41:43;;;;;;;11.20;5.47;;;;;;;9.40;60.14;101485.13;5083893;27;97507;-72
2023/02/20 04:46:54;;;;;;;9.75;6.30;;;;;;;9.36;60.25;101473.78;5079397;27;99336;-71
2023/02/20 04:49:20;;;;;;;11.82;6.00;;;;;;;9.28;60.97;101477.47;5083572;27;98747;-71
2023/02/20 04:51:47;;;;;;;8.68;5.72;;;;;;;9.30;61.03;101470.41;5082743;27;99077;-70
2023/02/20 04:54:13;;;;;;;11.93;5.75;;;;;;;9.38;60.80;101471.13;5087668;27;96833;-70
2023/02/20 04:56:39;;;;;;;10.20;5.85;;;;;;;9.42;60.93;101464.88;5085772;27;96817;-71
2023/02/20 04:59:07;;;;;;;11.35;6.10;;;;;;;9.39;60.94;101452.63;5087806;27;100032;-71
2023/02/20 05:01:34;;;;;;;9.60;5.95;;;;;;;9.43;60.87;101438.47;5087337;27;98650;-71
2023/02/20 05:04:00;;;;;;;8.85;6.00;;;;;;;9.43;60.93;101424.44;5081529;27;97111;-71
2023/02/20 05:06:27;;;;;;;10.38;6.10;;;;;;;9.41;60.84;101434.13;5080372;27;96764;-71
2023/02/20 05:08:53;;;;;;;9.82;5.80;;;;;;;9.75;59.88;101429.91;5078486;27;99119;-71
2023/02/20 05:11:19;;;;;;;9.10;6.40;;;;;;;9.39;61.12;101415.69;5079515;27;99080;-71
2023/02/20 05:13:46;;;;;;;8.77;5.60;;;;;;;9.42;61.34;101404.22;5082350;27;96781;-71
2023/02/20 05:16:14;;;;;;;7.40;5.50;;;;;;;9.60;60.74;101409.97;5077083;27;99006;-70
2023/02/20 05:18:40;;;;;;;9.32;6.30;;;;;;;9.49;61.22;101405.84;5079426;27;99147;-70
2023/02/20 05:23:51;;;;;;;8.00;5.78;;;;;;;9.60;61.57;101402.06;5075802;27;97053;-70
2023/02/20 05:26:20;;;;;;;10.05;6.15;;;;;;;9.53;61.69;101405.72;5082138;27;96859;-71
2023/02/20 05:28:46;;;;;;;7.85;5.80;;;;;;;9.67;61.52;101408.06;5084704;27;98851;-70
2023/02/20 05:31:14;;;;;;;9.80;6.75;;;;;;;9.86;60.85;101401.50;5086904;27;101455;-71
2023/02/20 05:33:40;;;;;;;8.38;5.68;;;;;;;10.12;60.41;101402.69;5086151;27;96936;-71
2023/02/20 05:36:08;;;;;;;10.77;6.68;;;;;;;10.03;60.64;101400.25;5085725;27;97315;-71
2023/02/20 05:38:34;;;;;;;13.88;7.03;;;;;;;9.92;61.11;101398.72;5080299;27;99250;-71
2023/02/20 05:41:00;;;;;;;9.25;6.45;;;;;;;9.82;61.43;101397.19;5083244;27;97596;-73
2023/02/20 05:43:27;;;;;;;8.82;6.57;;;;;;;9.80;61.98;101395.47;5081703;27;97474;-71
2023/02/20 05:45:53;;;;;;;10.32;6.70;;;;;;;9.85;62.03;101389.19;5083867;27;98187;-71
2023/02/20 05:48:21;;;;;;;10.35;6.70;;;;;;;9.68;62.64;101390.47;5082897;27;98727;-70
2023/02/20 05:50:49;;;;;;;11.32;6.93;;;;;;;9.64;62.82;101387.06;5078980;27;99472;-70
2023/02/20 05:53:15;;;;;;;9.90;6.30;;;;;;;9.59;63.47;101386.25;5083617;27;96764;-70
2023/02/20 05:55:42;;;;;;;10.57;6.60;;;;;;;9.67;63.07;101381.69;5078070;27;97125;-69
2023/02/20 05:58:08;;;;;;;9.48;6.85;;;;;;;9.73;62.86;101376.28;5088328;27;98989;-70
2023/02/20 06:00:35;;;;;;;8.63;6.28;;;;;;;9.66;63.79;101369.41;5082345;27;99193;-70
2023/02/20 06:03:01;;;;;;;11.05;6.82;;;;;;;9.72;63.80;101366.63;5090168;27;97023;-70
2023/02/20 06:05:29;;;;;;;10.48;6.78;;;;;;;9.82;63.14;101357.59;5073683;27;96966;-70
2023/02/20 06:07:56;;;;;;;9.02;6.82;;;;;;;9.86;62.74;101338.16;5083079;27;99013;-69
2023/02/20 06:10:23;;;;;;;12.00;7.03;;;;;;;9.95;62.72;101339.72;5077752;27;99286;-70
2023/02/20 06:12:49;;;;;;;10.80;7.65;;;;;;;9.81;62.65;101342.66;5084857;27;96769;-70
2023/02/20 06:15:16;;;;;;;9.02;6.90;;;;;;;9.84;63.18;101328.53;5080905;27;96756;-70
2023/02/20 06:17:42;;;;;;;12.35;7.25;;;;;;;9.66;63.12;101331.56;5087541;27;99043;-71
2023/02/20 06:20:09;;;;;;;8.68;6.35;;;;;;;9.72;62.95;101332.31;5085161;27;99086;-71
2023/02/20 06:22:37;;;;;;;9.80;6.80;;;;;;;9.65;63.63;101317.50;5083761;27;97011;-71
2023/02/20 06:25:03;;;;;;;11.77;6.88;;;;;;;9.65;64.06;101317.50;5084376;27;96825;-71
2023/02/20 06:27:30;;;;;;;10.65;7.00;;;;;;;9.83;63.12;101332.09;5079132;27;99181;-70
2023/02/20 06:29:56;;;;;;;9.93;6.38;;;;;;;9.91;62.86;101335.44;5082239;27;98870;-72
2023/02/20 06:32:22;;;;;;;11.52;6.97;;;;;;;9.93;62.68;101323.91;5073539;27;97393;-71
2023/02/20 06:34:50;;;;;;;12.68;7.60;;;;;;;9.81;62.63;101315.41;5078505;27;99900;-71
2023/02/20 06:37:16;;;;;;;11.48;7.65;;;;;;;9.79;62.71;101304.88;5080129;27;99582;-71
2023/02/20 06:39:46;;;;;;;10.50;7.10;;;;;;;9.87;62.83;101300.28;5078014;27;99126;-70
2023/02/20 06:42:13;;;;;;;11.40;7.47;;;;;;;10.06;62.22;101291.91;5078110;27;97601;-71
2023/02/20 06:44:39;;;;;;;16.08;7.72;;;;;;;10.12;62.08;101302.31;5074448;27;97250;-71
2023/02/20 06:47:07;;;;;;;13.93;8.25;;;;;;;10.10;62.21;101314.72;5080198;27;98035;-70
2023/02/20 06:49:34;;;;;;;12.00;7.97;;;;;;;9.78;63.50;101311.06;5078395;27;98752;-71
2023/02/20 06:52:00;;;;;;;13.05;8.60;;;;;;;9.78;63.43;101284.66;5073117;27;98744;-70
2023/02/20 06:54:27;;;;;;;12.68;9.32;;;;;;;9.94;63.38;101282.53;5073299;27;97119;-70
2023/02/20 06:56:55;;;;;;;14.15;8.93;;;;;;;9.85;62.92;101288.03;5081158;27;96948;-70
2023/02/20 06:59:23;;;;;;;13.65;9.50;;;;;;;9.84;63.09;101297.75;5080201;27;98152;-72
2023/02/20 07:01:49;;;;;;;13.45;9.77;;;;;;;10.21;62.09;101300.38;5079074;27;97189;-71
2023/02/20 07:04:18;;;;;;;13.63;9.57;;;;;;;10.07;62.10;101293.66;5080862;27;98716;-72
2023/02/20 07:06:44;;;;;;;17.40;11.52;;;;;;;10.29;61.05;101297.53;5077243;27;98864;-72
2023/02/20 07:09:10;;;;;;;16.75;10.20;;;;;;;10.14;61.52;101271.47;5079254;27;98019;-72
2023/02/20 07:11:37;;;;;;;17.90;10.40;;;;;;;10.15;61.12;101304.91;5082544;27;98376;-71
2023/02/20 07:14:05;;;;;;;15.95;10.48;;;;;;;10.11;61.28;101251.28;5079607;27;96904;-71
2023/02/20 07:16:31;;;;;;;13.20;9.35;;;;;;;10.18;61.00;101257.31;5078530;27;98304;-72
2023/02/20 07:18:58;;;;;;;18.30;10.18;;;;;;;10.33;60.56;101267.50;5077137;27;99400;-72
2023/02/20 07:21:25;;;;;;;15.13;10.25;;;;;;;10.22;60.61;101280.97;5075897;27;98120;-72
2023/02/20 07:23:52;;;;;;;13.95;10.20;;;;;;;10.58;59.64;101271.22;5079511;27;96846;-72
2023/02/20 07:26:19;;;;;;;16.50;10.25;;;;;;;10.41;59.24;101254.09;5066654;27;98952;-72
2023/02/20 07:28:46;;;;;;;13.18;9.40;;;;;;;10.28;59.83;101242.97;5073006;27;98879;-71
2023/02/20 07:31:14;;;;;;;13.82;9.43;;;;;;;10.14;60.01;101274.13;5076489;27;98707;-72
2023/02/20 07:33:42;;;;;;;14.48;9.48;;;;;;;10.21;59.72;101284.53;5077985;27;96967;-72
2023/02/20 07:36:09;;;;;;;15.05;10.38;;;;;;;10.10;60.41;101261.91;5081692;27;99437;-72
2023/02/20 07:38:35;;;;;;;14.88;9.98;;;;;;;10.06;59.74;101266.38;5082023;27;98883;-73
2023/02/20 07:41:02;;;;;;;15.35;9.65;;;;;;;10.22;59.16;101254.56;5077185;27;96800;-71
2023/02/20 07:43:28;;;;;;;18.02;9.60;;;;;;;10.07;59.55;101254.91;5079580;27;97055;-72
2023/02/20 07:45:55;;;;;;;13.60;9.50;;;;;;;10.15;59.65;101239.75;5078631;27;99086;-73
2023/02/20 07:48:23;;;;;;;13.68;9.02;;;;;;;10.65;58.03;101249.00;5075965;27;99155;-72
2023/02/20 07:50:51;;;;;;;14.70;9.75;;;;;;;10.86;57.43;101228.16;5079620;27;97130;-74
2023/02/20 07:53:19;;;;;;;14.98;9.75;;;;;;;10.70;57.14;101228.56;5077040;27;97333;-72
2023/02/20 07:55:46;;;;;;;12.05;8.20;;;;;;;10.82;56.66;101227.38;5082302;27;101877;-71
2023/02/20 07:58:12;;;;;;;12.55;8.27;;;;;;;10.89;56.81;101217.50;5073039;27;99007;-72
2023/02/20 08:00:39;;;;;;;11.23;8.20;;;;;;;10.37;57.32;101222.44;5081088;27;96819;-72
2023/02/20 08:03:05;;;;;;;9.85;7.40;;;;;;;10.39;57.49;101230.34;5079073;27;97043;-72
2023/02/20 08:05:33;;;;;;;13.10;8.05;;;;;;;10.37;57.73;101222.44;5083097;27;99301;-72
2023/02/20 08:07:59;;;;;;;15.15;7.53;;;;;;;10.38;57.58;101228.59;5079326;27;99091;-72
2023/02/20 08:10:28;;;;;;;10.73;7.93;;;;;;;10.70;56.80;101198.63;5080311;27;98355;-72
2023/02/20 08:12:55;;;;;;;12.65;7.82;;;;;;;10.77;56.56;101190.47;5082792;27;96930;-73
2023/02/20 08:15:22;;;;;;;11.18;7.50;;;;;;;10.65;56.10;101174.13;5082439;27;98004;-72
2023/02/20 08:17:49;;;;;;;9.63;6.70;;;;;;;10.69;56.59;101176.66;5083707;27;99311;-71
2023/02/20 08:20:17;;;;;;;10.45;7.07;;;;;;;10.44;57.28;101174.72;5087880;27;96719;-72
2023/02/20 08:22:46;;;;;;;10.50;6.75;;;;;;;10.70;56.80;101174.84;5085738;27;96907;-72
2023/02/20 08:25:14;;;;;;;12.15;7.40;;;;;;;10.88;56.53;101176.09;5090007;27;99297;-74
2023/02/20 08:27:42;;;;;;;11.82;6.53;;;;;;;10.90;56.10;101168.97;5079433;27;98073;-72
2023/02/20 08:30:12;;;;;;;10.80;6.95;;;;;;;10.89;55.82;101167.25;5086275;27;97366;-71
2023/02/20 08:32:39;;;;;;;9.20;6.88;;;;;;;10.96;55.83;101166.16;5084400;27;97907;-72
2023/02/20 08:35:06;;;;;;;10.18;6.88;;;;;;;11.02;55.73;101158.03;5086570;27;98337;-72
2023/02/20 08:37:32;;;;;;;10.18;6.30;;;;;;;10.76;55.89;101143.81;5084774;27;98855;-74
2023/02/20 08:40:05;;;;;;;9.00;6.78;;;;;;;10.87;56.37;101140.00;5075175;27;97102;-74
2023/02/20 08:42:32;;;;;;;11.55;6.72;;;;;;;10.88;55.90;101147.88;5085952;27;96758;-72
2023/02/20 08:44:59;;;;;;;10.20;6.55;;;;;;;10.65;56.86;101130.06;5087837;27;100036;-71
2023/02/20 08:47:25;;;;;;;9.23;6.30;;;;;;;10.83;56.38;101126.00;5086470;27;98096;-73
2023/02/20 08:49:51;;;;;;;10.80;6.60;;;;;;;10.68;56.68;101111.47;5079719;27;98666;-72
2023/02/20 08:52:19;;;;;;;9.65;6.10;;;;;;;10.73;56.68;101114.84;5081086;27;97558;-73
2023/02/20 08:54:46;;;;;;;11.75;5.93;;;;;;;10.79;56.52;101127.88;5081568;27;101656;-71
2023/02/20 08:57:14;;;;;;;9.60;6.13;;;;;;;10.89;56.08;101102.03;5084484;27;99346;-72
2023/02/20 08:59:41;;;;;;;10.50;6.07;;;;;;;10.98;56.14;101093.78;5084039;27;97592;-72
2023/02/20 09:02:15;;;;;;;13.15;6.85;;;;;;;10.67;56.54;101087.72;5076031;27;100284;-73
2023/02/20 09:04:43;;;;;;;9.65;5.88;;;;;;;10.71;56.49;101079.66;5078392;27;99055;-72
2023/02/20 09:07:09;;;;;;;10.20;5.50;;;;;;;11.08;56.03;101084.66;5080913;27;98857;-72
2023/02/20 09:09:36;;;;;;;9.43;6.15;;;;;;;11.29;55.04;101066.38;5078468;27;96938;-71
2023/02/20 09:12:02;;;;;;;9.40;5.80;;;;;;;11.24;55.19;101047.13;5079266;27;98412;-72
2023/02/20 09:14:32;;;;;;;11.70;5.68;;;;;;;10.62;56.55;101057.94;5077125;27;98968;-73
2023/02/20 09:16:59;;;;;;;7.50;5.15;;;;;;;10.83;56.35;101056.41;5083361;27;100346;-73
2023/02/20 09:19:25;;;;;;;9.20;5.57;;;;;;;10.92;55.70;101045.53;5080938;27;96833;-72
2023/02/20 09:21:52;;;;;;;9.95;6.00;;;;;;;11.14;55.49;101038.66;5082405;27;97703;-72
2023/02/20 09:24:18;;;;;;;8.88;5.80;;;;;;;11.37;55.09;101030.78;5079028;27;101875;-72
2023/02/20 09:26:45;;;;;;;9.60;5.47;;;;;;;11.43;54.46;101032.34;5087625;27;101000;-72
2023/02/20 09:29:11;;;;;;;8.70;5.15;;;;;;;11.36;54.92;101023.75;5080195;27;97109;-73
2023/02/20 09:31:39;;;;;;;9.60;6.03;;;;;;;11.39;54.69;101009.56;5086305;27;97272;-74
2023/02/20 09:34:05;;;;;;;8.93;5.50;;;;;;;11.41;54.38;101011.25;5084100;27;99893;-73
2023/02/20 09:36:32;;;;;;;8.30;4.80;;;;;;;11.33;54.82;100993.91;5076728;27;99391;-72
2023/02/20 09:38:58;;;;;;;10.65;4.85;;;;;;;11.67;53.67;100996.25;5081840;27;97351;-72
2023/02/20 09:41:35;;;;;;;7.45;5.05;;;;;;;11.76;53.71;101012.66;5081371;27;98063;-72
2023/02/20 09:44:11;;;;;;;10.82;5.53;;;;;;;11.54;53.77;100994.03;5082112;27;98906;-72
2023/02/20 09:46:42;;;;;;;6.47;4.30;;;;;;;11.19;55.42;100997.03;5085934;27;98971;-71
2023/02/20 09:49:12;;;;;;;7.25;4.47;;;;;;;11.38;54.44;100987.53;5083140;27;97301;-73
2023/02/20 09:51:42;;;;;;;15.52;5.80;;;;;;;11.54;54.36;100991.38;5084170;27;97592;-72
2023/02/20 09:54:13;;;;;;;7.13;4.88;;;;;;;11.76;53.76;100988.84;5085328;27;99186;-72
2023/02/20 09:56:44;;;;;;;7.22;4.40;;;;;;;11.74;53.81;100995.13;5076910;27;98771;-72
2023/02/20 09:59:15;;;;;;;6.97;4.25;;;;;;;11.86;53.35;100984.09;5080779;27;97095;-72
2023/02/20 10:01:51;;;;;;;7.50;4.28;;;;;;;11.90;52.96;100977.75;5081756;27;96794;-72
2023/02/20 10:04:21;;;;;;;8.00;4.10;;;;;;;11.92;53.16;100981.22;5077207;27;99386;-71
2023/02/20 10:06:51;;;;;;;5.15;3.50;;;;;;;11.94;53.10;100992.63;5081161;27;99716;-73
2023/02/20 10:09:17;;;;;;;12.15;4.85;;;;;;;12.34;52.06;100989.28;5078396;27;97142;-72
2023/02/20 10:12:10;;;;;;;6.95;4.32;;;;;;;11.96;52.81;100990.75;5076112;27;97236;-72
2023/02/20 10:14:51;;;;;;;9.20;4.60;;;;;;;11.76;53.45;100982.69;5082735;27;97977;-71
2023/02/20 10:17:29;;;;;;;8.05;3.72;;;;;;;11.93;53.28;100990.88;5077196;27;99501;-72
2023/02/20 10:20:02;;;;;;;5.63;4.25;;;;;;;11.89;53.06;100974.22;5076275;27;97399;-72
2023/02/20 10:22:32;;;;;;;9.25;4.85;;;;;;;11.91;53.40;100964.47;5080924;27;96778;-71
2023/02/20 10:25:11;;;;;;;10.05;5.05;;;;;;;12.19;52.44;100964.28;5078984;27;99000;-72
2023/02/20 10:27:51;;;;;;;6.68;4.38;;;;;;;11.87;53.25;100946.97;5087647;27;98817;-72
2023/02/20 10:30:25;;;;;;;6.45;4.03;;;;;;;12.12;53.07;100962.78;5081532;27;97321;-73
2023/02/20 10:32:58;;;;;;;8.88;4.50;;;;;;;12.13;52.95;100950.41;5084754;27;96788;-72
2023/02/20 10:35:30;;;;;;;9.18;4.25;;;;;;;12.28;52.70;100950.66;5074357;27;99418;-73
2023/02/20 10:37:58;;;;;;;9.90;4.00;;;;;;;12.56;51.37;100934.53;5082646;27;99039;-73
2023/02/20 10:40:31;;;;;;;9.13;5.60;;;;;;;12.45;51.95;100942.06;5081932;27;97212;-72
2023/02/20 10:43:02;;;;;;;5.90;4.20;;;;;;;12.60;51.78;100933.47;5078031;27;97320;-72
2023/02/20 10:45:37;;;;;;;8.02;4.05;;;;;;;12.88;51.11;100922.59;5077513;27;98968;-72
2023/02/20 10:48:07;;;;;;;7.97;4.50;;;;;;;12.64;51.69;100931.56;5081686;27;99154;-72
2023/02/20 10:50:39;;;;;;;9.25;3.90;;;;;;;12.73;51.85;100920.59;5082771;27;97262;-72
2023/02/20 10:53:16;;;;;;;10.85;4.55;;;;;;;12.97;51.43;100908.94;5081504;27;97621;-72
2023/02/20 10:55:49;;;;;;;7.05;3.97;;;;;;;13.05;50.96;100906.84;5088023;27;99485;-73
2023/02/20 10:58:21;;;;;;;6.03;3.75;;;;;;;13.25;50.94;100913.09;5088019;27;98743;-72
2023/02/20 11:00:51;;;;;;;7.85;4.00;;;;;;;13.18;51.25;100893.06;5083053;27;98214;-72
2023/02/20 11:03:26;;;;;;;7.22;4.05;;;;;;;13.16;51.37;100904.59;5081990;27;97330;-73
2023/02/20 11:05:58;;;;;;;5.93;3.65;;;;;;;13.51;50.61;100896.88;5080040;27;99070;-72
2023/02/20 11:08:24;;;;;;;6.18;3.55;;;;;;;13.09;51.52;100887.19;5083710;27;97729;-71
2023/02/20 11:10:57;;;;;;;8.63;4.25;;;;;;;12.95;52.21;100891.34;5075350;27;96806;-72
2023/02/20 11:13:25;;;;;;;7.18;4.10;;;;;;;13.15;52.05;100905.53;5075821;27;97086;-72
2023/02/20 11:15:55;;;;;;;7.00;3.55;;;;;;;12.87;52.69;100898.78;5076790;27;99078;-71
2023/02/20 11:18:30;;;;;;;7.20;3.40;;;;;;;13.11;52.49;100900.41;5083169;27;99309;-73
2023/02/20 11:20:56;;;;;;;6.38;3.70;;;;;;;13.15;52.43;100892.25;5076443;27;97658;-72
2023/02/20 11:23:39;;;;;;;6.72;3.30;;;;;;;13.30;52.16;100900.47;5074246;27;96867;-72
2023/02/20 11:26:25;;;;;;;12.40;4.03;;;;;;;13.41;51.93;100890.22;5079709;27;99121;-72
2023/02/20 11:29:00;;;;;;;7.50;3.65;;;;;;;13.14;53.05;100898.50;5076526;27;99074;-73
2023/02/20 11:31:26;;;;;;;8.98;3.95;;;;;;;13.27;53.35;100914.72;5077095;27;98691;-73
2023/02/20 11:33:56;;;;;;;4.75;3.50;;;;;;;13.40;52.98;100912.41;5078276;27;98267;-73
2023/02/20 11:36:25;;;;;;;4.10;3.35;;;;;;;13.43;53.02;100906.97;5081048;27;97899;-73
2023/02/20 11:38:58;;;;;;;7.97;4.00;;;;;;;13.65;52.44;100896.25;5077300;27;99070;-73
2023/02/20 11:41:29;;;;;;;7.43;3.85;;;;;;;13.27;53.40;100905.91;5091155;27;97515;-73
2023/02/20 11:44:16;;;;;;;9.93;4.28;;;;;;;12.97;54.65;100887.72;5084730;27;97113;-72
2023/02/20 11:46:42;;;;;;;7.28;3.53;;;;;;;13.27;53.64;100903.25;5085975;27;99238;-73
2023/02/20 11:49:12;;;;;;;7.15;3.53;;;;;;;13.12;54.07;100892.41;5087190;27;99444;-72
2023/02/20 11:51:40;;;;;;;8.52;3.95;;;;;;;12.93;55.29;100890.59;5091313;27;97129;-72
2023/02/20 11:54:09;;;;;;;9.02;4.82;;;;;;;13.12;54.67;100889.75;5079616;27;99536;-72